Time;durP1;ratioP1;P1;durP2;ratioP2;P2;SDS_P1;SDS_P2;PMS_P1;PMS_P2;Temp;Humidity;BMP_temperature;BMP_pressure;BME280_temperature;BME280_humidity;BME280_pressure;Samples;Min_cycle;Max_cycle;Signal;HPM_P1;HPM_P2
2021/04/09 00:00:24;;;;;;;11.70;6.35;;;2.60;99.90;;;0.79;73.75;101465.81;3510354;40;102603;-39
2021/04/09 00:02:53;;;;;;;14.95;7.00;;;2.60;99.90;;;0.79;74.03;101457.75;3510467;40;102285;-40
2021/04/09 00:05:21;;;;;;;13.40;6.25;;;2.60;99.90;;;0.75;74.60;101450.09;3509805;40;102839;-39
2021/04/09 00:07:50;;;;;;;11.98;5.88;;;2.60;99.90;;;0.79;74.07;101441.63;3510525;40;102598;-39
2021/04/09 00:10:23;;;;;;;13.05;6.82;;;2.60;99.90;;;0.79;73.47;101444.31;3501680;40;102439;-40
2021/04/09 00:12:50;;;;;;;14.73;6.55;;;2.60;99.90;;;0.82;73.35;101448.59;3518052;40;102399;-40
2021/04/09 00:15:19;;;;;;;11.85;7.00;;;2.70;99.90;;;0.86;73.52;101440.09;3509819;39;102274;-39
2021/04/09 00:17:48;;;;;;;13.40;6.40;;;2.70;99.90;;;0.90;72.86;101437.16;3502025;40;102528;-40
2021/04/09 00:20:20;;;;;;;12.40;6.30;;;2.70;99.90;;;0.90;72.82;101432.63;3502166;40;105277;-40
2021/04/09 00:22:49;;;;;;;15.90;7.05;;;2.70;99.90;;;0.90;73.14;101429.94;3518430;40;103355;-39
2021/04/09 00:25:19;;;;;;;14.52;6.45;;;2.70;99.90;;;0.90;73.49;101429.94;3517653;40;102821;-40
2021/04/09 00:27:47;;;;;;;10.18;5.85;;;2.70;99.90;;;0.92;72.62;101427.97;3518546;40;104820;-39
2021/04/09 00:30:27;;;;;;;12.63;6.70;;;2.70;99.90;;;1.01;72.73;101426.31;3502011;40;103145;-40
2021/04/09 00:32:55;;;;;;;11.60;6.00;;;2.80;99.90;;;1.02;72.57;101424.47;3518813;40;102449;-40
2021/04/09 00:35:23;;;;;;;15.60;6.90;;;2.80;99.90;;;0.98;72.52;101419.38;3501558;40;104115;-39
2021/04/09 00:37:53;;;;;;;12.60;5.80;;;2.80;99.90;;;1.00;72.01;101417.41;3510334;39;103399;-39
2021/04/09 00:40:22;;;;;;;15.40;6.22;;;2.80;99.90;;;1.00;72.34;101420.09;3518016;40;102316;-43
2021/04/09 00:42:50;;;;;;;12.98;6.55;;;2.80;99.90;;;1.08;72.55;101418.59;3510266;39;102157;-39
2021/04/09 00:45:19;;;;;;;12.60;6.05;;;2.80;99.90;;;1.06;72.06;101415.16;3501951;40;102761;-39
2021/04/09 00:47:46;;;;;;;;;;;2.90;99.90;;;1.07;71.66;101412.34;3502704;40;103532;-39
2021/04/09 00:50:15;;;;;;;12.10;6.22;;;2.90;99.90;;;1.05;71.95;101406.25;3502142;40;103076;-39
2021/04/09 00:52:50;;;;;;;10.20;5.28;;;2.90;99.90;;;1.09;71.65;101405.00;3635540;22;104292;-39
2021/04/09 00:55:18;;;;;;;11.43;6.07;;;2.90;99.90;;;1.11;72.23;101407.56;3496069;40;102232;-40
2021/04/09 00:57:50;;;;;;;10.18;5.75;;;2.90;99.90;;;1.10;71.89;101400.47;3500478;40;103232;-41
2021/04/09 01:00:20;;;;;;;13.68;6.25;;;2.90;99.90;;;1.08;72.11;101402.47;3500522;40;105451;-41
2021/04/09 01:02:48;;;;;;;11.45;6.03;;;2.90;99.90;;;1.10;72.07;101395.09;3500598;40;104532;-41
2021/04/09 01:05:17;;;;;;;11.13;6.00;;;2.90;99.90;;;1.12;71.92;101391.28;3492174;40;104494;-41
2021/04/09 01:07:46;;;;;;;10.23;5.38;;;2.90;99.90;;;1.11;71.50;101392.25;3500412;40;104153;-40
2021/04/09 01:10:20;;;;;;;11.77;5.30;;;2.90;99.90;;;1.13;71.91;101397.50;3492129;40;104178;-41
2021/04/09 01:12:49;;;;;;;8.55;5.70;;;2.90;99.90;;;1.08;71.88;101381.78;3508441;40;102238;-41
2021/04/09 01:15:20;;;;;;;11.80;5.80;;;2.90;99.90;;;1.02;72.34;101385.03;3500229;40;104296;-40
2021/04/09 01:17:58;;;;;;;9.85;5.20;;;2.80;99.90;;;0.96;72.26;101385.59;3500469;40;102265;-40
2021/04/09 01:20:55;;;;;;;11.98;5.35;;;2.80;99.90;;;0.98;72.56;101387.13;3508244;40;105448;-41
2021/04/09 01:23:42;;;;;;;11.52;5.28;;;2.80;99.90;;;0.97;72.81;101393.50;3508339;40;103781;-40
2021/04/09 01:26:36;;;;;;;9.63;5.55;;;2.80;99.90;;;0.97;72.63;101384.59;3508417;40;103658;-41
2021/04/09 01:29:32;;;;;;;12.90;5.22;;;2.80;99.90;;;1.03;72.75;101388.56;3500339;40;102261;-41
2021/04/09 01:32:06;;;;;;;12.85;5.63;;;2.80;99.90;;;1.02;72.46;101376.97;3509927;40;102257;-40
2021/04/09 01:34:42;;;;;;;10.30;5.38;;;2.80;99.90;;;0.98;72.92;101371.00;3500077;40;103252;-41
2021/04/09 01:37:17;;;;;;;12.60;5.88;;;2.80;99.90;;;1.01;72.77;101372.56;3508719;40;102293;-41
2021/04/09 01:39:54;;;;;;;11.10;5.07;;;2.80;99.90;;;1.02;72.96;101366.22;3500383;40;102532;-41
2021/04/09 01:42:26;;;;;;;10.60;4.80;;;2.80;99.90;;;0.97;73.30;101368.47;3508267;40;102280;-40
2021/04/09 01:44:56;;;;;;;10.27;5.10;;;2.80;99.90;;;0.97;72.95;101363.09;3500042;40;102414;-40
2021/04/09 01:47:27;;;;;;;8.07;4.93;;;2.80;99.90;;;0.94;72.92;101361.50;3491698;40;103913;-41
2021/04/09 01:50:01;;;;;;;9.68;4.80;;;2.80;99.90;;;0.98;73.09;101354.03;3500052;40;102372;-41
2021/04/09 01:52:34;;;;;;;9.82;4.88;;;2.80;99.90;;;0.99;72.76;101347.69;3492117;40;102372;-41
2021/04/09 01:55:08;;;;;;;10.27;5.10;;;2.80;99.90;;;0.99;72.75;101343.13;3499697;40;102146;-41
2021/04/09 01:57:42;;;;;;;9.80;5.07;;;2.80;99.90;;;0.97;73.26;101339.75;3500345;40;104073;-41
2021/04/09 02:00:16;;;;;;;13.98;5.75;;;2.80;99.90;;;1.00;73.74;101338.63;3508320;40;103923;-40
2021/04/09 02:02:47;;;;;;;9.95;4.85;;;2.80;99.90;;;1.00;73.45;101331.41;3500275;40;103230;-41
2021/04/09 02:05:22;;;;;;;12.18;5.18;;;2.80;99.90;;;1.03;73.12;101330.28;3500574;40;102287;-41
2021/04/09 02:07:54;;;;;;;12.35;5.15;;;2.80;99.90;;;1.05;73.39;101327.44;3500188;40;104877;-41
2021/04/09 02:10:25;;;;;;;10.90;5.07;;;2.80;99.90;;;1.05;73.48;101324.75;3499372;40;104785;-41
2021/04/09 02:12:55;;;;;;;13.27;5.20;;;2.80;99.90;;;1.08;72.78;101324.50;3500573;40;102399;-41
2021/04/09 02:15:26;;;;;;;11.57;5.18;;;2.90;99.90;;;1.07;73.21;101317.44;3507743;40;102167;-40
2021/04/09 02:17:53;;;;;;;10.85;4.70;;;2.90;99.90;;;1.19;73.08;101316.31;3500373;40;102131;-40
2021/04/09 02:20:24;;;;;;;10.80;5.28;;;2.90;99.90;;;1.18;72.86;101320.00;3492031;40;104191;-40
2021/04/09 02:22:52;;;;;;;11.27;5.82;;;3.00;99.90;;;1.26;72.55;101319.31;3507886;40;102359;-41
2021/04/09 02:25:23;;;;;;;10.02;5.00;;;3.00;99.90;;;1.18;72.98;101317.31;3492272;40;104774;-40
2021/04/09 02:27:53;;;;;;;10.93;5.53;;;3.00;99.90;;;1.13;72.55;101306.97;3500175;40;102402;-40
2021/04/09 02:30:23;;;;;;;11.05;5.22;;;3.00;99.90;;;1.08;72.94;101305.69;3499987;40;102533;-41
2021/04/09 02:32:51;;;;;;;10.73;5.45;;;2.90;99.90;;;1.04;73.33;101307.81;3508063;40;102496;-41
2021/04/09 02:35:20;;;;;;;10.95;5.40;;;2.90;99.90;;;1.05;73.44;101300.56;3491420;40;103441;-41
2021/04/09 02:37:51;;;;;;;9.43;5.00;;;2.90;99.90;;;1.07;72.91;101307.53;3500107;40;102375;-41
2021/04/09 02:40:28;;;;;;;10.10;5.03;;;2.90;99.90;;;1.08;73.58;101303.00;3507926;40;102172;-41
2021/04/09 02:42:57;;;;;;;9.00;4.95;;;2.90;99.90;;;1.06;72.79;101296.91;3499883;40;102217;-41
2021/04/09 02:45:26;;;;;;;9.80;5.10;;;2.80;99.90;;;1.10;73.41;101291.13;3507610;40;102439;-41
2021/04/09 02:48:00;;;;;;;11.27;4.95;;;2.90;99.90;;;1.12;73.49;101291.00;3499821;40;103089;-41
2021/04/09 02:50:41;;;;;;;8.73;4.63;;;2.90;99.90;;;1.13;73.23;101292.69;3499964;40;102400;-40
2021/04/09 02:53:27;;;;;;;10.07;5.22;;;2.90;99.90;;;1.11;72.80;101290.13;3492232;40;103326;-40
2021/04/09 02:55:59;;;;;;;10.57;5.38;;;2.90;99.90;;;1.12;72.98;101282.94;3507959;40;103256;-41
2021/04/09 02:58:29;;;;;;;12.43;5.43;;;2.90;99.90;;;1.09;72.81;101283.22;3509055;40;103322;-41
2021/04/09 03:00:58;;;;;;;9.75;5.30;;;2.90;99.90;;;1.12;73.23;101275.69;3484948;40;104564;-41
2021/04/09 03:03:27;;;;;;;10.48;4.70;;;2.90;99.90;;;1.11;72.70;101265.94;3492446;40;104114;-41
2021/04/09 03:05:55;;;;;;;11.05;5.03;;;2.90;99.90;;;1.12;72.73;101270.31;3493368;40;102445;-41
2021/04/09 03:08:24;;;;;;;11.10;5.60;;;2.90;99.90;;;1.11;72.97;101273.16;3508641;40;103324;-40
2021/04/09 03:10:51;;;;;;;10.05;4.85;;;2.90;99.90;;;1.08;73.26;101274.28;3493113;40;105087;-41
2021/04/09 03:13:18;;;;;;;13.43;6.13;;;2.90;99.90;;;1.08;73.65;101270.75;3493281;40;105802;-40
2021/04/09 03:15:56;;;;;;;9.88;5.00;;;2.90;99.90;;;1.08;72.94;101273.44;3492953;40;102790;-41
2021/04/09 03:18:28;;;;;;;12.85;5.90;;;2.90;99.90;;;1.10;73.68;101266.09;3508971;40;104128;-41
2021/04/09 03:20:56;;;;;;;9.80;5.35;;;2.90;99.90;;;1.08;73.23;101252.78;3508783;40;103687;-41
2021/04/09 03:23:23;;;;;;;10.10;5.32;;;2.90;99.90;;;1.08;73.55;101257.31;3476696;40;104072;-41
2021/04/09 03:25:51;;;;;;;9.85;5.68;;;2.90;99.90;;;1.07;73.47;101258.31;3493117;40;102226;-41
2021/04/09 03:28:19;;;;;;;10.85;5.93;;;2.90;99.90;;;1.09;73.12;101257.16;3501117;40;102234;-41
2021/04/09 03:33:24;;;;;;;10.35;5.55;;;2.90;99.90;;;1.01;73.11;101251.66;3485673;40;103177;-40
2021/04/09 03:35:52;;;;;;;11.52;5.07;;;2.80;99.90;;;1.00;73.14;101249.94;3501264;40;102714;-41
2021/04/09 03:38:22;;;;;;;11.57;5.60;;;2.80;99.90;;;0.94;73.83;101239.78;3501024;40;105811;-41
2021/04/09 03:40:49;;;;;;;12.77;5.47;;;2.80;99.90;;;0.96;73.33;101244.00;3508823;40;102455;-41
2021/04/09 03:43:17;;;;;;;11.30;5.82;;;2.80;99.90;;;0.96;73.51;101240.47;3501100;40;104004;-40
2021/04/09 03:45:44;;;;;;;9.02;5.55;;;2.80;99.90;;;0.81;73.74;101218.53;3500619;40;102416;-40
2021/04/09 03:48:11;;;;;;;11.55;5.63;;;2.70;99.90;;;0.93;73.69;101228.16;3508951;40;102301;-41
2021/04/09 03:50:39;;;;;;;10.43;5.87;;;2.70;99.90;;;0.99;73.82;101230.28;3492988;40;104514;-41
2021/04/09 03:53:06;;;;;;;10.97;5.43;;;2.80;99.90;;;0.96;73.50;101233.25;3492586;40;103224;-41
2021/04/09 03:55:34;;;;;;;11.30;5.83;;;2.70;99.90;;;0.93;74.14;101228.16;3508866;40;102398;-41
2021/04/09 03:58:01;;;;;;;11.50;5.40;;;2.70;99.90;;;0.93;74.02;101232.66;3492816;40;103290;-41
2021/04/09 04:00:28;;;;;;;10.97;5.40;;;2.70;99.90;;;0.90;74.39;101225.75;3500583;40;102421;-41
2021/04/09 04:02:56;;;;;;;9.57;5.50;;;2.70;99.90;;;0.91;73.85;101235.50;3492655;40;104494;-41
2021/04/09 04:05:23;;;;;;;11.80;5.55;;;2.70;99.90;;;0.89;74.28;101234.78;3500330;40;102542;-41
2021/04/09 04:07:51;;;;;;;16.42;6.38;;;2.70;99.90;;;0.90;73.60;101228.44;3484814;40;102308;-41
2021/04/09 04:10:18;;;;;;;9.10;4.80;;;2.70;99.90;;;0.89;74.40;101226.75;3499947;40;102456;-41
2021/04/09 04:12:46;;;;;;;10.88;5.35;;;2.70;99.90;;;0.91;74.09;101224.75;3492763;40;103961;-41
2021/04/09 04:15:13;;;;;;;12.20;5.67;;;2.70;99.90;;;0.88;74.42;101219.66;3500220;40;103289;-40
2021/04/09 04:17:41;;;;;;;12.60;5.22;;;2.70;99.90;;;0.91;74.44;101224.75;3493089;40;103454;-40
2021/04/09 04:20:09;;;;;;;12.23;5.93;;;2.70;99.90;;;0.92;74.06;101225.59;3484593;40;102808;-41
2021/04/09 04:22:36;;;;;;;;;;;2.70;99.90;;;0.90;74.21;101212.31;3509583;40;102153;-41
2021/04/09 04:25:06;;;;;;;9.75;5.60;;;2.70;99.90;;;0.95;74.35;101220.81;3492403;40;103683;-41
2021/04/09 04:27:33;;;;;;;10.75;5.32;;;2.70;99.90;;;0.97;73.97;101212.63;3508659;40;103297;-41
2021/04/09 04:30:01;;;;;;;11.13;5.83;;;2.80;99.90;;;0.97;74.19;101213.44;3493301;40;102375;-41
2021/04/09 04:32:28;;;;;;;11.85;5.97;;;2.80;99.90;;;1.02;73.91;101214.84;3501158;40;104783;-41
2021/04/09 04:34:55;;;;;;;12.50;5.47;;;2.80;99.90;;;1.00;73.58;101215.03;3500510;40;102451;-41
2021/04/09 04:37:22;;;;;;;11.45;5.78;;;2.80;99.90;;;1.00;74.02;101206.97;3492421;40;102373;-41
2021/04/09 04:39:50;;;;;;;10.97;5.90;;;2.80;99.90;;;0.97;73.64;101209.94;3500621;40;103205;-41
2021/04/09 04:42:17;;;;;;;16.10;6.20;;;2.80;99.90;;;0.98;73.68;101208.94;3500630;40;105047;-41
2021/04/09 04:44:44;;;;;;;10.67;5.40;;;2.80;99.90;;;0.94;74.43;101215.59;3508496;40;102756;-41
2021/04/09 04:47:11;;;;;;;15.77;6.38;;;2.70;99.90;;;0.97;74.44;101216.13;3492671;40;103094;-41
2021/04/09 04:49:38;;;;;;;14.65;5.95;;;2.70;99.90;;;0.97;74.15;101213.44;3492431;40;102114;-39
2021/04/09 04:52:06;;;;;;;12.63;6.03;;;2.70;99.90;;;1.03;73.98;101205.81;3500382;40;103250;-41
2021/04/09 04:54:33;;;;;;;;;;;2.80;99.90;;;1.08;74.13;101203.56;3501115;40;104543;-41
2021/04/09 04:57:00;;;;;;;10.88;5.63;;;2.80;99.90;;;1.08;74.18;101200.88;3509137;40;105716;-40
2021/04/09 04:59:27;;;;;;;12.75;6.15;;;2.90;99.90;;;1.12;73.72;101196.91;3500513;40;104107;-40
2021/04/09 05:01:54;;;;;;;12.93;6.07;;;2.90;99.90;;;1.14;73.65;101205.69;3500819;40;103112;-40
2021/04/09 05:04:22;;;;;;;12.10;5.40;;;2.90;99.90;;;1.12;73.30;101200.44;3500562;40;102720;-41
2021/04/09 05:06:49;;;;;;;9.03;5.67;;;2.90;99.90;;;1.27;72.92;101202.72;3508711;40;105932;-41
2021/04/09 05:09:16;;;;;;;10.38;5.78;;;3.00;99.90;;;1.25;73.33;101204.69;3508548;40;102599;-41
2021/04/09 05:11:43;;;;;;;13.50;5.90;;;3.00;99.90;;;1.26;73.32;101199.16;3492785;40;103192;-42
2021/04/09 05:14:10;;;;;;;11.93;6.22;;;3.00;99.90;;;1.21;73.08;101196.06;3500625;40;102535;-41
2021/04/09 05:16:37;;;;;;;12.93;5.72;;;3.00;99.90;;;1.18;73.07;101193.66;3500554;40;104599;-41
2021/04/09 05:19:04;;;;;;;11.93;5.78;;;3.00;99.90;;;1.24;72.68;101190.41;3492474;40;104951;-40
2021/04/09 05:21:32;;;;;;;10.00;5.10;;;3.00;99.90;;;1.27;73.18;101198.19;3492246;40;103296;-41
2021/04/09 05:23:59;;;;;;;10.07;5.53;;;3.00;99.90;;;1.28;73.24;101199.03;3499861;40;104054;-41
2021/04/09 05:26:26;;;;;;;12.70;5.93;;;3.00;99.90;;;1.41;73.07;101196.06;3500539;40;104641;-40
2021/04/09 05:28:53;;;;;;;12.38;6.18;;;3.10;99.90;;;1.44;72.89;101198.47;3492475;40;105087;-40
2021/04/09 05:31:20;;;;;;;11.45;5.82;;;3.10;99.90;;;1.47;72.46;101195.47;3508482;40;103171;-41
2021/04/09 05:33:47;;;;;;;12.52;6.53;;;3.20;99.90;;;1.55;72.52;101200.97;3500378;40;104300;-41
2021/04/09 05:36:14;;;;;;;13.32;5.55;;;3.20;99.90;;;1.64;72.11;101201.13;3500815;40;103138;-41
2021/04/09 05:38:41;;;;;;;13.02;5.97;;;3.30;99.90;;;1.72;72.36;101201.25;3492494;40;102369;-41
2021/04/09 05:41:08;;;;;;;12.75;6.70;;;3.40;99.90;;;1.76;72.80;101199.94;3492437;40;103377;-41
2021/04/09 05:43:35;;;;;;;14.57;6.33;;;3.40;99.90;;;1.83;72.12;101211.00;3484056;40;105772;-40
2021/04/09 05:46:02;;;;;;;13.03;5.57;;;3.50;99.90;;;1.87;71.98;101198.94;3492418;40;103964;-41
2021/04/09 05:48:29;;;;;;;11.30;5.78;;;3.60;99.90;;;1.95;72.30;101195.53;3492816;40;102449;-41
2021/04/09 05:50:56;;;;;;;10.90;5.55;;;3.60;99.90;;;2.04;72.40;101191.09;3492259;40;105962;-40
2021/04/09 05:53:24;;;;;;;10.67;5.50;;;3.70;99.90;;;2.15;72.05;101201.69;3500139;40;102771;-41
2021/04/09 05:55:51;;;;;;;11.07;6.03;;;3.80;99.90;;;2.27;71.62;101199.66;3500447;40;103080;-41
2021/04/09 05:58:18;;;;;;;12.07;6.18;;;3.90;99.90;;;2.29;70.94;101203.03;3484085;40;104188;-41
2021/04/09 06:00:45;;;;;;;12.35;6.22;;;3.90;99.90;;;2.32;70.67;101194.66;3500543;40;104138;-41
2021/04/09 06:03:12;;;;;;;16.73;5.93;;;4.00;99.90;;;2.40;70.56;101193.91;3492367;40;105199;-41
2021/04/09 06:05:39;;;;;;;12.27;6.20;;;4.00;99.90;;;2.54;71.57;101189.88;3500122;40;103153;-41
2021/04/09 06:08:09;;;;;;;13.30;6.88;;;4.10;99.90;;;2.59;70.13;101198.34;3492328;40;103263;-41
2021/04/09 06:10:37;;;;;;;8.63;5.20;;;4.20;99.90;;;2.67;69.52;101198.44;3508946;40;104456;-40
2021/04/09 06:13:05;;;;;;;10.38;5.68;;;4.30;99.90;;;2.79;69.41;101199.09;3508701;40;102348;-41
2021/04/09 06:15:33;;;;;;;13.73;6.47;;;4.30;99.90;;;2.86;70.94;101192.09;3507819;40;104169;-41
2021/04/09 06:18:00;;;;;;;;;;;4.40;99.90;;;2.90;70.37;101187.22;3500859;40;104507;-40
2021/04/09 06:20:28;;;;;;;10.43;5.28;;;4.50;99.90;;;2.97;69.50;101196.41;3500145;40;104017;-40
2021/04/09 06:22:55;;;;;;;12.10;5.97;;;4.50;99.90;;;3.08;69.62;101189.06;3492111;40;104685;-41
2021/04/09 06:25:24;;;;;;;15.00;6.30;;;4.60;99.90;;;3.22;69.89;101196.63;3509481;40;104027;-40
2021/04/09 06:27:52;;;;;;;11.07;6.38;;;4.70;99.90;;;3.38;68.60;101184.28;3508322;40;105221;-41
2021/04/09 06:30:21;;;;;;;12.07;6.07;;;4.80;99.90;;;3.51;68.23;101187.44;3508175;40;105780;-40
2021/04/09 06:32:47;;;;;;;;;;;5.00;99.90;;;3.67;67.36;101183.13;3508695;40;103347;-41
2021/04/09 06:35:15;;;;;;;11.65;5.75;;;5.10;99.90;;;3.82;67.25;101180.72;3499987;40;103102;-41
2021/04/09 06:37:42;;;;;;;;;;;5.20;99.90;;;3.96;66.98;101171.16;3509120;40;103875;-41
2021/04/09 06:40:13;;;;;;;12.98;5.82;;;5.40;99.90;;;4.17;66.26;101174.31;3500374;40;103012;-41
2021/04/09 06:42:42;;;;;;;14.63;5.80;;;5.50;99.90;;;4.34;65.68;101171.69;3509276;40;102347;-41
2021/04/09 06:45:12;;;;;;;11.32;5.68;;;5.70;99.90;;;4.55;65.25;101173.13;3507923;40;103049;-41
2021/04/09 06:47:39;;;;;;;12.50;5.85;;;5.90;99.90;;;4.77;64.47;101176.22;3509418;40;103293;-41
2021/04/09 06:50:08;;;;;;;16.73;6.77;;;6.10;99.90;;;4.98;63.39;101175.75;3499926;40;104636;-41
2021/04/09 06:52:36;;;;;;;11.73;6.07;;;6.30;99.90;;;5.23;62.87;101176.63;3640210;22;105092;-42
2021/04/09 06:55:05;;;;;;;11.97;6.00;;;6.50;99.90;;;5.33;61.32;101193.53;3518805;39;103025;-41
2021/04/09 06:57:35;;;;;;;12.50;6.45;;;6.60;99.90;;;5.51;62.33;101181.69;3517558;40;102218;-40
2021/04/09 07:00:10;;;;;;;14.00;5.93;;;6.80;99.90;;;5.70;59.88;101180.50;3509374;40;105660;-40
2021/04/09 07:02:41;;;;;;;15.07;5.93;;;7.00;99.90;;;5.89;60.09;101179.28;3516313;39;102358;-40
2021/04/09 07:05:10;;;;;;;12.43;6.00;;;7.10;99.90;;;6.04;60.59;101162.31;3507538;40;102952;-41
2021/04/09 07:07:37;;;;;;;9.55;5.20;;;7.30;99.90;;;6.18;58.02;101177.88;3507725;40;102253;-41
2021/04/09 07:10:07;;;;;;;9.82;5.43;;;7.50;99.90;;;6.28;58.55;101168.66;3506745;40;102283;-41
2021/04/09 07:12:35;;;;;;;11.00;4.95;;;7.60;99.90;;;6.32;57.28;101167.28;3508302;40;103503;-41
2021/04/09 07:15:08;;;;;;;12.65;5.18;;;7.70;99.90;;;6.45;55.93;101169.44;3507404;40;104138;-42
2021/04/09 07:17:54;;;;;;;10.57;4.90;;;7.80;99.90;;;6.50;56.99;101169.78;3499375;40;102519;-41
2021/04/09 07:20:31;;;;;;;11.35;5.75;;;7.80;99.90;;;6.66;58.25;101163.41;3508315;40;103183;-41
2021/04/09 07:23:02;;;;;;;12.68;6.00;;;7.90;99.90;;;6.80;55.44;101171.81;3499246;40;104978;-41
2021/04/09 07:25:35;;;;;;;10.77;5.75;;;8.10;99.90;;;6.89;55.38;101171.56;3507490;40;103290;-43
2021/04/09 07:28:21;;;;;;;10.73;5.15;;;8.20;99.90;;;7.06;53.97;101174.19;3508063;40;102146;-41
2021/04/09 07:30:53;;;;;;;9.45;5.45;;;8.30;99.90;;;7.27;56.00;101170.78;3507115;40;103961;-41
2021/04/09 07:33:23;;;;;;;12.20;5.28;;;8.50;99.90;;;7.27;53.08;101172.66;3506714;40;102482;-41
2021/04/09 07:35:56;;;;;;;13.45;5.50;;;8.60;99.90;;;7.33;54.59;101164.63;3508237;40;104202;-41
2021/04/09 07:38:28;;;;;;;10.93;5.50;;;8.70;99.90;;;7.43;54.68;101158.13;3508607;40;102326;-41
2021/04/09 07:41:08;;;;;;;11.07;5.47;;;8.70;99.90;;;7.57;55.33;101161.91;3508271;40;104124;-41
2021/04/09 07:43:38;;;;;;;9.48;5.40;;;8.80;99.90;;;7.65;54.69;101163.66;3506914;40;102251;-41
2021/04/09 07:46:18;;;;;;;11.20;5.50;;;8.90;99.90;;;7.80;55.26;101156.41;3509353;40;104174;-41
2021/04/09 07:48:45;;;;;;;12.23;5.78;;;9.00;99.90;;;7.95;52.20;101150.97;3508213;40;102299;-41
2021/04/09 07:51:20;;;;;;;11.55;5.15;;;9.20;99.90;;;8.22;51.61;101156.78;3492820;40;104876;-41
2021/04/09 07:53:47;;;;;;;11.75;5.20;;;9.40;99.90;;;8.43;52.24;101155.97;3509157;40;104273;-41
2021/04/09 07:56:17;;;;;;;10.23;5.13;;;9.60;99.90;;;8.58;53.12;101157.88;3509911;40;103128;-41
2021/04/09 07:58:56;;;;;;;12.13;5.68;;;9.80;99.90;;;8.73;51.20;101153.22;3509291;40;102395;-41
2021/04/09 08:01:27;;;;;;;10.63;5.47;;;9.90;99.90;;;8.79;51.19;101154.34;3508105;40;103158;-41
2021/04/09 08:03:55;;;;;;;9.35;5.50;;;10.00;99.90;;;8.88;51.71;101157.78;3500073;40;102451;-41
2021/04/09 08:06:34;;;;;;;11.02;5.10;;;10.10;99.90;;;9.01;50.27;101147.03;3500808;40;102272;-41
2021/04/09 08:09:03;;;;;;;9.77;5.15;;;10.20;99.90;;;9.11;50.48;101146.69;3499465;40;102445;-41
2021/04/09 08:11:42;;;;;;;8.80;4.43;;;10.30;99.90;;;9.15;52.11;101147.16;3509414;40;103578;-41
2021/04/09 08:14:29;;;;;;;9.98;5.72;;;10.40;99.90;;;9.23;50.65;101144.28;3509224;40;104226;-41
2021/04/09 08:17:11;;;;;;;13.07;5.00;;;10.50;99.90;;;9.16;48.57;101149.69;3508925;40;103077;-41
2021/04/09 08:19:42;;;;;;;11.15;5.22;;;10.50;99.10;;;9.19;49.20;101149.31;3509429;40;102465;-41
2021/04/09 08:22:10;;;;;;;11.98;5.00;;;10.50;99.80;;;9.19;49.23;101149.31;3500503;40;104886;-41
2021/04/09 08:24:38;;;;;;;9.07;4.32;;;10.50;99.20;;;9.35;50.91;101155.50;3507815;40;102206;-41
2021/04/09 08:27:13;;;;;;;11.73;5.80;;;10.60;99.90;;;9.41;50.10;101162.88;3509356;40;102286;-41
2021/04/09 08:29:43;;;;;;;10.20;5.18;;;10.60;99.90;;;9.37;48.20;101160.75;3510185;40;102369;-41
2021/04/09 08:32:11;;;;;;;10.00;4.80;;;10.70;98.50;;;9.44;50.16;101158.94;3499911;40;104174;-41
2021/04/09 08:34:39;;;;;;;;;;;10.70;99.70;;;9.55;51.01;101157.56;3500630;40;104876;-41
2021/04/09 08:37:07;;;;;;;9.83;4.43;;;10.80;99.90;;;9.63;48.69;101151.94;3500753;40;103017;-40
2021/04/09 08:39:45;;;;;;;8.73;4.60;;;10.90;99.30;;;9.69;50.04;101159.34;3508438;40;103412;-41
2021/04/09 08:42:15;;;;;;;7.28;4.47;;;10.90;99.50;;;9.69;50.89;101153.03;3500649;40;104173;-41
2021/04/09 08:44:44;;;;;;;8.77;4.60;;;10.90;99.90;;;9.75;50.36;101152.25;3507918;40;102365;-41
2021/04/09 08:47:19;;;;;;;11.73;5.35;;;11.00;99.80;;;9.84;50.26;101156.53;3509258;40;103593;-41
2021/04/09 08:49:47;;;;;;;10.30;4.75;;;11.00;99.90;;;9.98;52.44;101156.59;3509462;40;102383;-41
2021/04/09 08:52:16;;;;;;;9.85;5.20;;;11.10;99.90;;;10.12;51.88;101147.47;3509153;40;102323;-40
2021/04/09 08:54:54;;;;;;;11.15;5.35;;;11.20;99.90;;;10.21;51.44;101162.59;3499805;40;103295;-41
2021/04/09 08:57:34;;;;;;;11.75;5.38;;;11.30;99.90;;;10.29;50.42;101153.41;3500632;40;103127;-41
2021/04/09 09:00:09;;;;;;;8.90;4.55;;;11.40;99.90;;;10.31;47.19;101150.47;3508437;40;103322;-41
2021/04/09 09:02:55;;;;;;;12.45;5.20;;;11.50;97.60;;;10.38;48.49;101150.50;3507901;40;102575;-41
2021/04/09 09:05:27;;;;;;;8.52;5.03;;;11.60;98.30;;;10.48;47.16;101148.28;3500044;40;103288;-41
2021/04/09 09:07:57;;;;;;;9.23;5.03;;;11.60;97.50;;;10.59;46.67;101144.97;3508223;40;104258;-41
2021/04/09 09:10:38;;;;;;;12.43;4.55;;;11.70;96.70;;;10.79;46.51;101144.19;3507426;40;102244;-41
2021/04/09 09:13:12;;;;;;;10.77;4.82;;;11.90;96.40;;;11.02;44.51;101151.97;3508963;40;102141;-41
2021/04/09 09:15:59;;;;;;;8.52;4.50;;;12.10;95.30;;;11.20;44.11;101153.28;3508138;40;103523;-41
2021/04/09 09:18:31;;;;;;;7.75;4.57;;;12.30;94.60;;;11.34;44.88;101148.66;3509067;40;102224;-41
2021/04/09 09:21:20;;;;;;;8.75;4.68;;;12.50;94.20;;;11.41;43.91;101143.22;3507820;40;102490;-41
2021/04/09 09:24:01;;;;;;;9.02;4.20;;;12.60;93.30;;;11.47;44.83;101151.38;3507381;40;102438;-41
2021/04/09 09:26:40;;;;;;;9.68;4.43;;;12.60;94.00;;;11.41;43.31;101152.22;3509256;40;102491;-41
2021/04/09 09:29:20;;;;;;;;;;;12.60;92.10;;;11.43;44.23;101149.31;3509685;40;102595;-41
2021/04/09 09:32:09;;;;;;;8.75;4.13;;;12.70;92.10;;;11.50;45.21;101144.66;3501045;40;103060;-41
2021/04/09 09:34:40;;;;;;;8.48;4.38;;;12.70;93.50;;;11.65;45.96;101147.19;3509650;40;104041;-41
2021/04/09 09:37:19;;;;;;;8.13;4.00;;;12.90;93.70;;;11.90;43.43;101141.03;3508220;40;102461;-41
2021/04/09 09:40:02;;;;;;;8.15;4.47;;;13.00;91.70;;;12.22;45.48;101144.78;3509611;40;103300;-41
2021/04/09 09:42:32;;;;;;;10.60;4.93;;;13.20;94.50;;;12.28;42.56;101144.97;3509169;40;102538;-41
2021/04/09 09:45:13;;;;;;;8.75;4.30;;;13.30;91.00;;;12.06;41.57;101137.03;3508798;40;103259;-41
2021/04/09 09:47:44;;;;;;;10.02;4.28;;;13.30;88.20;;;12.10;44.47;101137.47;3507806;40;102512;-41
2021/04/09 09:50:15;;;;;;;9.60;4.60;;;13.30;91.70;;;12.03;45.13;101140.19;3509273;40;103328;-41
2021/04/09 09:53:07;;;;;;;10.63;4.65;;;13.30;91.70;;;12.06;44.30;101135.13;3508695;40;103179;-41
2021/04/09 09:55:46;;;;;;;9.90;4.43;;;13.30;91.90;;;12.15;44.26;101141.19;3507430;40;102296;-41
2021/04/09 09:58:26;;;;;;;8.18;4.40;;;13.40;92.30;;;12.29;43.33;101143.91;3507596;40;102524;-39
2021/04/09 10:01:06;;;;;;;10.68;4.38;;;13.50;91.00;;;12.36;42.12;101144.72;3507550;40;103143;-41
2021/04/09 10:03:43;;;;;;;8.30;4.70;;;13.50;88.80;;;12.45;44.39;101135.19;3508635;40;102703;-41
2021/04/09 10:06:13;;;;;;;9.70;4.78;;;13.60;90.90;;;12.47;42.25;101140.47;3507758;40;102371;-41
2021/04/09 10:09:00;;;;;;;8.10;4.43;;;13.60;88.00;;;12.41;43.78;101133.13;3507806;40;102427;-41
2021/04/09 10:11:29;;;;;;;12.57;7.63;;;13.60;89.40;;;12.37;44.77;101128.09;3508037;40;104154;-41
2021/04/09 10:13:56;;;;;;;10.10;5.15;;;13.60;90.80;;;12.47;42.77;101132.25;3499078;40;102372;-41
2021/04/09 10:16:26;;;;;;;9.90;4.57;;;13.60;87.90;;;12.57;43.38;101129.88;3507658;40;103169;-41
2021/04/09 10:18:58;;;;;;;11.25;5.18;;;13.70;89.50;;;12.59;45.11;101126.94;3508656;40;104348;-42
2021/04/09 10:21:39;;;;;;;11.32;5.20;;;13.70;90.80;;;12.73;45.00;101123.06;3507657;40;102130;-41
2021/04/09 10:24:20;;;;;;;10.73;5.38;;;13.80;91.00;;;12.81;45.06;101113.72;3508368;40;102472;-41
2021/04/09 10:27:02;;;;;;;9.35;4.95;;;13.80;91.40;;;12.98;43.01;101107.75;3508798;40;104081;-41
2021/04/09 10:29:38;;;;;;;11.00;5.57;;;14.00;90.40;;;13.12;44.14;101117.53;3509062;40;102373;-41
2021/04/09 10:32:17;;;;;;;10.00;4.72;;;14.20;90.50;;;12.95;41.24;101109.88;3508120;40;104327;-41